createdAt,value
2023-01-17T00:02:20.995Z,5.40
2023-01-17T00:05:12.351Z,7.10
2023-01-17T00:07:58.692Z,6.70
2023-01-17T00:10:28.301Z,6.00
2023-01-17T00:13:03.882Z,5.80
2023-01-17T00:15:32.447Z,5.60
2023-01-17T00:18:00.463Z,5.30
2023-01-17T00:20:50.973Z,5.30
2023-01-17T00:23:40.973Z,5.70
2023-01-17T00:26:14.912Z,5.30
2023-01-17T00:28:43.818Z,4.30
2023-01-17T00:31:13.868Z,4.70
2023-01-17T00:33:41.996Z,6.80
2023-01-17T00:36:10.899Z,5.90
2023-01-17T00:38:40.424Z,5.40
2023-01-17T00:41:11.281Z,5.40
2023-01-17T00:46:44.590Z,4.80
2023-01-17T00:49:31.264Z,4.70
2023-01-17T00:52:18.095Z,6.60
2023-01-17T00:55:04.752Z,7.10
2023-01-17T00:57:51.587Z,6.20
2023-01-17T01:00:38.146Z,5.00
2023-01-17T01:03:28.659Z,4.50
2023-01-17T01:06:15.500Z,4.90
2023-01-17T01:09:02.524Z,4.90
2023-01-17T01:11:48.770Z,5.40
2023-01-17T01:14:35.452Z,7.10
2023-01-17T01:17:22.459Z,8.20
2023-01-17T01:20:09.165Z,7.90
2023-01-17T01:22:55.765Z,7.20
2023-01-17T01:25:42.486Z,7.20
2023-01-17T01:28:31.912Z,7.10
2023-01-17T01:31:22.488Z,6.00
2023-01-17T01:33:52.271Z,5.30
2023-01-17T01:36:21.162Z,5.10
2023-01-17T01:38:50.432Z,4.70
2023-01-17T01:41:18.503Z,5.00
2023-01-17T01:43:52.891Z,5.00
2023-01-17T01:46:24.107Z,5.20
2023-01-17T01:48:58.945Z,4.90
2023-01-17T01:51:33.464Z,5.30
2023-01-17T01:54:08.199Z,5.30
2023-01-17T01:56:37.657Z,6.50
2023-01-17T01:59:10.530Z,6.80
2023-01-17T02:01:38.761Z,7.30
2023-01-17T02:04:12.077Z,7.20
2023-01-17T02:06:46.014Z,5.50
2023-01-17T02:09:17.142Z,5.30
2023-01-17T02:11:47.445Z,5.40
2023-01-17T02:14:21.061Z,5.20
2023-01-17T02:17:12.258Z,5.30
2023-01-17T02:22:57.313Z,5.50
2023-01-17T02:25:57.091Z,6.40
2023-01-17T02:28:50.261Z,5.80
2023-01-17T02:31:23.344Z,6.20
2023-01-17T02:34:00.524Z,5.90
2023-01-17T02:36:46.586Z,5.40
2023-01-17T02:39:22.864Z,5.40
2023-01-17T02:42:04.777Z,5.20
2023-01-17T02:44:41.939Z,4.90
2023-01-17T02:47:28.301Z,4.70
2023-01-17T02:50:05.427Z,4.70
2023-01-17T02:53:02.515Z,4.60
2023-01-17T02:55:39.344Z,4.50
2023-01-17T02:58:19.340Z,4.80
2023-01-17T03:00:58.018Z,4.70
2023-01-17T03:03:34.480Z,4.50
2023-01-17T03:06:11.820Z,4.60
2023-01-17T03:08:43.419Z,4.90
2023-01-17T03:11:12.615Z,5.10
2023-01-17T03:13:41.342Z,4.80
2023-01-17T03:16:20.751Z,4.50
2023-01-17T03:18:49.400Z,4.10
2023-01-17T03:21:17.642Z,4.40
2023-01-17T03:23:45.760Z,4.40
2023-01-17T03:26:13.863Z,4.00
2023-01-17T03:28:41.902Z,4.80
2023-01-17T03:31:09.933Z,4.60
2023-01-17T03:33:37.837Z,4.30
2023-01-17T03:36:05.961Z,4.00
2023-01-17T03:38:33.880Z,4.20
2023-01-17T03:41:01.768Z,4.20
2023-01-17T03:43:29.771Z,3.70
2023-01-17T03:46:07.053Z,3.50
2023-01-17T03:48:35.004Z,4.30
2023-01-17T03:51:03.059Z,4.30
2023-01-17T03:53:30.908Z,4.70
2023-01-17T03:55:58.909Z,4.10
2023-01-17T03:58:26.738Z,3.80
2023-01-17T04:00:54.728Z,4.10
2023-01-17T04:03:22.645Z,3.80
2023-01-17T04:05:50.707Z,3.50
2023-01-17T04:08:18.911Z,3.60
2023-01-17T04:10:46.826Z,3.90
2023-01-17T04:13:16.792Z,3.60
2023-01-17T04:15:46.111Z,3.00
2023-01-17T04:18:14.113Z,3.10
2023-01-17T04:20:42.253Z,3.90
2023-01-17T04:23:10.454Z,3.10
2023-01-17T04:25:38.453Z,3.50
2023-01-17T04:28:06.555Z,2.80
2023-01-17T04:30:34.590Z,2.90
2023-01-17T04:33:03.071Z,3.80
2023-01-17T04:35:31.778Z,3.20
2023-01-17T04:37:59.938Z,3.50
2023-01-17T04:40:29.600Z,2.80
2023-01-17T04:42:58.037Z,2.90
2023-01-17T04:45:26.259Z,3.10
2023-01-17T04:47:54.095Z,3.80
2023-01-17T04:50:21.962Z,3.80
2023-01-17T04:52:49.900Z,3.20
2023-01-17T04:55:17.986Z,3.20
2023-01-17T04:57:45.864Z,3.20
2023-01-17T05:00:14.321Z,3.00
2023-01-17T05:02:42.355Z,4.40
2023-01-17T05:05:10.848Z,3.70
2023-01-17T05:07:39.200Z,4.30
2023-01-17T05:10:07.604Z,4.60
2023-01-17T05:12:35.467Z,4.40
2023-01-17T05:15:03.637Z,16.60
2023-01-17T05:17:31.569Z,4.20
2023-01-17T05:19:59.557Z,4.40
2023-01-17T05:22:27.404Z,4.50
2023-01-17T05:24:55.422Z,3.40
2023-01-17T05:27:25.817Z,2.70
2023-01-17T05:29:53.754Z,2.90
2023-01-17T05:32:21.753Z,2.60
2023-01-17T05:34:51.195Z,3.00
2023-01-17T05:37:19.198Z,2.70
2023-01-17T05:39:47.087Z,2.30
2023-01-17T05:42:15.431Z,3.10
2023-01-17T05:47:15.357Z,2.90
2023-01-17T05:49:45.895Z,2.40
2023-01-17T05:52:14.315Z,3.20
2023-01-17T05:54:42.199Z,3.60
2023-01-17T05:57:10.222Z,4.20
2023-01-17T05:59:38.086Z,3.30
2023-01-17T06:02:06.079Z,3.80
2023-01-17T06:04:34.066Z,3.70
2023-01-17T06:07:02.226Z,3.70
2023-01-17T06:09:30.265Z,8.00
2023-01-17T06:11:58.141Z,13.30
2023-01-17T06:14:26.107Z,5.20
2023-01-17T06:16:54.274Z,4.10
2023-01-17T06:19:22.218Z,3.70
2023-01-17T06:21:50.758Z,4.60
2023-01-17T06:24:18.920Z,4.40
2023-01-17T06:26:48.687Z,5.00
2023-01-17T06:29:17.764Z,4.10
2023-01-17T06:31:45.734Z,4.20
2023-01-17T06:34:13.625Z,3.90
2023-01-17T06:36:41.815Z,4.40
2023-01-17T06:39:10.995Z,4.90
2023-01-17T06:41:38.946Z,3.90
2023-01-17T06:44:08.033Z,4.20
2023-01-17T06:46:36.364Z,4.80
2023-01-17T06:49:04.332Z,3.30
2023-01-17T06:51:32.485Z,4.00
2023-01-17T06:54:01.341Z,5.10
2023-01-17T06:56:33.434Z,3.50
2023-01-17T06:59:01.334Z,5.00
2023-01-17T07:01:29.648Z,3.60
2023-01-17T07:03:58.132Z,4.80
2023-01-17T07:06:28.857Z,5.50
2023-01-17T07:08:56.971Z,4.70
2023-01-17T07:11:25.050Z,5.50
2023-01-17T07:13:53.133Z,5.30
2023-01-17T07:16:21.103Z,4.20
2023-01-17T07:18:49.800Z,4.30
2023-01-17T07:21:17.712Z,4.20
2023-01-17T07:23:45.591Z,3.50
2023-01-17T07:26:13.603Z,4.20
2023-01-17T07:28:41.492Z,4.50
2023-01-17T07:31:09.366Z,4.60
2023-01-17T07:33:37.320Z,4.80
2023-01-17T07:36:07.454Z,4.80
2023-01-17T07:38:35.791Z,4.60
2023-01-17T07:41:03.898Z,5.20
2023-01-17T07:43:31.939Z,6.90
2023-01-17T07:46:02.120Z,6.50
2023-01-17T07:48:30.620Z,4.30
2023-01-17T07:50:58.811Z,4.10
2023-01-17T07:53:29.033Z,4.30
2023-01-17T07:56:02.726Z,3.80
2023-01-17T07:58:32.136Z,4.40
2023-01-17T08:01:09.319Z,3.40
2023-01-17T08:03:40.169Z,2.70
2023-01-17T08:06:22.157Z,3.50
2023-01-17T08:08:50.896Z,4.00
2023-01-17T08:11:18.985Z,4.40
2023-01-17T08:13:46.946Z,3.70
2023-01-17T08:16:15.485Z,3.80
2023-01-17T08:18:43.514Z,4.00
2023-01-17T08:21:15.247Z,3.50
2023-01-17T08:23:47.380Z,4.30
2023-01-17T08:26:21.421Z,6.10
2023-01-17T08:28:55.891Z,4.50
2023-01-17T08:31:24.872Z,4.80
2023-01-17T08:33:52.920Z,4.20
2023-01-17T08:36:20.843Z,5.10
2023-01-17T08:38:52.869Z,4.50
2023-01-17T08:41:23.250Z,3.30
2023-01-17T08:43:52.155Z,3.70
2023-01-17T08:46:20.139Z,3.40
2023-01-17T08:48:48.144Z,3.80
2023-01-17T08:51:16.249Z,4.20
2023-01-17T08:53:44.099Z,5.70
2023-01-17T08:56:12.115Z,4.30
2023-01-17T08:58:41.482Z,5.30
2023-01-17T09:01:09.580Z,5.30
2023-01-17T09:03:40.771Z,4.40
2023-01-17T09:08:47.121Z,3.90
2023-01-17T09:11:17.397Z,4.40
2023-01-17T09:13:45.444Z,4.70
2023-01-17T09:16:13.542Z,4.40
2023-01-17T09:18:41.529Z,5.20
2023-01-17T09:21:17.577Z,4.80
2023-01-17T09:23:46.215Z,3.80
2023-01-17T09:26:40.472Z,4.00
2023-01-17T09:29:08.411Z,7.50
2023-01-17T09:31:36.389Z,11.20
2023-01-17T09:34:04.502Z,13.40
2023-01-17T09:36:34.077Z,11.40
2023-01-17T09:39:03.646Z,5.50
2023-01-17T09:41:34.756Z,11.40
2023-01-17T09:46:33.782Z,7.60
2023-01-17T09:49:28.060Z,6.40
2023-01-17T09:51:56.066Z,6.80
2023-01-17T09:54:27.768Z,4.90
2023-01-17T09:57:10.727Z,4.60
2023-01-17T10:00:03.312Z,4.50
2023-01-17T10:02:56.199Z,4.50
2023-01-17T10:05:58.091Z,4.40
2023-01-17T10:08:57.556Z,4.90
2023-01-17T10:11:44.046Z,6.00
2023-01-17T10:14:11.970Z,4.20
2023-01-17T10:17:10.033Z,6.20
2023-01-17T10:20:05.365Z,6.80
2023-01-17T10:22:51.426Z,5.10
2023-01-17T10:25:39.703Z,7.90
2023-01-17T10:28:32.794Z,5.10
2023-01-17T10:31:08.025Z,6.60
2023-01-17T10:33:44.664Z,6.30
2023-01-17T10:36:20.558Z,4.40
2023-01-17T10:38:53.224Z,4.70
2023-01-17T10:41:38.357Z,4.70
2023-01-17T10:44:19.718Z,4.20
2023-01-17T10:46:54.543Z,3.40
2023-01-17T10:49:25.267Z,4.90
2023-01-17T10:51:59.883Z,5.40
2023-01-17T10:54:46.619Z,4.90
2023-01-17T10:57:27.310Z,6.70
2023-01-17T11:00:00.721Z,8.20
2023-01-17T11:02:36.891Z,7.50
2023-01-17T11:05:20.486Z,12.70
2023-01-17T11:08:04.313Z,7.30
2023-01-17T11:10:40.307Z,4.70
2023-01-17T11:13:27.345Z,3.80
2023-01-17T11:16:02.282Z,4.50
2023-01-17T11:18:33.371Z,7.20
2023-01-17T11:21:12.387Z,3.20
2023-01-17T11:23:52.761Z,4.70
2023-01-17T11:26:32.880Z,4.90
2023-01-17T11:29:34.646Z,3.60
2023-01-17T11:32:33.974Z,3.90
2023-01-17T11:35:22.572Z,3.90
2023-01-17T11:38:03.306Z,3.40
2023-01-17T11:40:43.462Z,4.00
2023-01-17T11:43:11.486Z,2.90
2023-01-17T11:45:41.082Z,3.30
2023-01-17T11:48:09.086Z,3.50
2023-01-17T11:50:44.074Z,3.30
2023-01-17T11:53:23.148Z,3.30
2023-01-17T11:55:59.572Z,3.50
2023-01-17T11:58:28.649Z,3.40
2023-01-17T12:01:10.151Z,4.10
2023-01-17T12:03:53.632Z,3.70
2023-01-17T12:07:06.591Z,3.60
2023-01-17T12:09:43.522Z,3.70
2023-01-17T12:12:53.018Z,4.10
2023-01-17T12:15:52.150Z,4.70
2023-01-17T12:18:47.275Z,4.60
2023-01-17T12:21:31.873Z,3.60
2023-01-17T12:24:21.121Z,4.10
2023-01-17T12:27:20.296Z,4.40
2023-01-17T12:30:03.486Z,4.70
2023-01-17T12:32:53.047Z,4.00
2023-01-17T12:35:38.834Z,3.80
2023-01-17T12:38:14.085Z,4.60
2023-01-17T12:40:51.259Z,3.70
2023-01-17T12:43:23.626Z,4.60
2023-01-17T12:45:54.781Z,6.10
2023-01-17T12:48:23.837Z,3.30
2023-01-17T12:50:51.744Z,3.60
2023-01-17T12:53:24.337Z,3.90
2023-01-17T12:56:09.243Z,4.20
2023-01-17T12:58:44.907Z,4.50
2023-01-17T13:01:25.572Z,3.90
2023-01-17T13:06:36.132Z,3.50
2023-01-17T13:09:05.661Z,3.30
2023-01-17T13:11:46.681Z,3.60
2023-01-17T13:16:57.135Z,3.20
2023-01-17T13:19:37.453Z,2.60
2023-01-17T13:22:09.209Z,2.70
2023-01-17T13:24:57.249Z,4.40
2023-01-17T13:27:38.199Z,4.00
2023-01-17T13:33:28.502Z,3.50
2023-01-17T13:36:38.581Z,4.80
2023-01-17T13:39:44.160Z,4.10
2023-01-17T13:42:19.411Z,3.30
2023-01-17T13:44:47.640Z,2.60
2023-01-17T13:47:18.701Z,7.40
2023-01-17T13:49:51.604Z,3.80
2023-01-17T13:52:19.438Z,2.80
2023-01-17T13:54:49.873Z,3.40
2023-01-17T13:57:29.376Z,3.70
2023-01-17T14:00:23.487Z,3.30
2023-01-17T14:02:53.306Z,2.60
2023-01-17T14:05:31.552Z,2.20
2023-01-17T14:08:17.432Z,2.60
2023-01-17T14:10:50.522Z,2.70
2023-01-17T14:13:37.225Z,3.20
2023-01-17T14:16:26.833Z,3.00
2023-01-17T14:18:55.957Z,3.20
2023-01-17T14:21:33.607Z,3.40
2023-01-17T14:24:10.855Z,18.00
2023-01-17T14:27:19.194Z,26.00
2023-01-17T14:29:57.387Z,33.80
2023-01-17T14:32:35.346Z,16.90
2023-01-17T14:35:05.535Z,8.00
2023-01-17T14:37:33.393Z,11.30
2023-01-17T14:40:01.953Z,9.30
2023-01-17T14:42:31.805Z,7.80
2023-01-17T14:45:09.689Z,7.60
2023-01-17T14:47:39.434Z,50.70
2023-01-17T14:50:29.435Z,32.90
2023-01-17T14:53:15.697Z,25.40
2023-01-17T14:55:52.364Z,20.20
2023-01-17T14:58:20.334Z,14.00
2023-01-17T15:00:50.802Z,10.90
2023-01-17T15:03:19.171Z,10.40
2023-01-17T15:05:49.934Z,9.90
2023-01-17T15:08:20.505Z,9.90
2023-01-17T15:11:03.188Z,9.50
2023-01-17T15:13:44.220Z,8.20
2023-01-17T15:16:28.517Z,8.40
2023-01-17T15:18:57.546Z,8.60
2023-01-17T15:21:32.390Z,8.10
2023-01-17T15:24:04.800Z,6.90
2023-01-17T15:26:42.329Z,6.60
2023-01-17T15:29:18.775Z,5.20
2023-01-17T15:31:58.279Z,5.90
2023-01-17T15:34:44.120Z,8.50
2023-01-17T15:37:34.660Z,10.00
2023-01-17T15:40:16.901Z,9.20
2023-01-17T15:42:49.025Z,12.10
2023-01-17T15:45:20.387Z,25.20
2023-01-17T15:47:49.056Z,29.90
2023-01-17T15:50:19.727Z,28.90
2023-01-17T15:52:55.132Z,28.60
2023-01-17T15:55:30.243Z,30.80
2023-01-17T15:57:58.443Z,30.00
2023-01-17T16:00:38.392Z,25.50
2023-01-17T16:03:31.770Z,24.20
2023-01-17T16:06:02.932Z,21.90
2023-01-17T16:08:33.862Z,22.10
2023-01-17T16:11:06.213Z,19.60
2023-01-17T16:13:38.682Z,16.90
2023-01-17T16:16:15.784Z,15.00
2023-01-17T16:18:46.573Z,16.20
2023-01-17T16:21:19.899Z,15.50
2023-01-17T16:23:48.478Z,14.00
2023-01-17T16:26:16.854Z,13.30
2023-01-17T16:28:46.047Z,16.20
2023-01-17T16:31:14.496Z,16.50
2023-01-17T16:33:42.613Z,16.60
2023-01-17T16:36:14.742Z,16.70
2023-01-17T16:38:44.727Z,15.40
2023-01-17T16:41:13.242Z,15.80
2023-01-17T16:43:41.635Z,13.80
2023-01-17T16:46:12.001Z,12.20
2023-01-17T16:48:40.087Z,13.30
2023-01-17T16:51:08.467Z,15.20
2023-01-17T16:53:37.616Z,16.10
2023-01-17T16:56:10.251Z,13.60
2023-01-17T16:58:38.221Z,13.20
2023-01-17T17:01:16.594Z,12.70
2023-01-17T17:03:48.558Z,12.40
2023-01-17T17:06:22.577Z,11.30
2023-01-17T17:08:50.659Z,12.50
2023-01-17T17:11:22.034Z,13.60
2023-01-17T17:13:54.181Z,13.40
2023-01-17T17:16:26.624Z,13.70
2023-01-17T17:18:57.405Z,11.60
2023-01-17T17:21:26.398Z,12.50
2023-01-17T17:23:57.126Z,11.90
2023-01-17T17:26:34.234Z,12.70
2023-01-17T17:29:04.082Z,13.70
2023-01-17T17:31:32.410Z,14.10
2023-01-17T17:34:02.259Z,14.50
2023-01-17T17:36:30.977Z,14.30
2023-01-17T17:38:59.490Z,14.60
2023-01-17T17:41:29.452Z,14.10
2023-01-17T17:43:59.644Z,15.50
2023-01-17T17:46:29.283Z,15.10
2023-01-17T17:48:58.332Z,13.00
2023-01-17T17:51:32.566Z,12.50
2023-01-17T17:54:03.643Z,13.70
2023-01-17T17:59:01.816Z,11.30
2023-01-17T18:01:30.090Z,15.90
2023-01-17T18:04:02.512Z,16.90
2023-01-17T18:06:30.687Z,15.90
2023-01-17T18:08:58.634Z,13.00
2023-01-17T18:11:27.622Z,12.60
2023-01-17T18:13:59.996Z,11.70
2023-01-17T18:16:30.925Z,10.50
2023-01-17T18:18:59.742Z,9.10
2023-01-17T18:21:30.931Z,9.30
2023-01-17T18:24:10.917Z,9.60
2023-01-17T18:26:44.923Z,8.70
2023-01-17T18:29:16.116Z,9.70
2023-01-17T18:31:45.146Z,8.30
2023-01-17T18:34:16.107Z,8.20
2023-01-17T18:39:17.839Z,8.80
2023-01-17T18:41:46.307Z,9.20
2023-01-17T18:44:15.433Z,8.90
2023-01-17T18:46:43.521Z,7.60
2023-01-17T18:49:13.112Z,7.60
2023-01-17T18:51:42.829Z,6.10
2023-01-17T18:54:11.097Z,5.90
2023-01-17T18:56:39.279Z,5.30
2023-01-17T18:59:07.334Z,4.80
2023-01-17T19:01:36.361Z,5.30
2023-01-17T19:04:06.020Z,5.20
2023-01-17T19:06:42.899Z,5.20
2023-01-17T19:09:12.516Z,6.30
2023-01-17T19:11:43.098Z,5.90
2023-01-17T19:14:12.446Z,4.60
2023-01-17T19:16:41.864Z,4.00
2023-01-17T19:19:14.267Z,4.30
2023-01-17T19:21:43.146Z,5.00
2023-01-17T19:24:13.538Z,4.40
2023-01-17T19:26:43.313Z,4.80
2023-01-17T19:29:12.295Z,5.60
2023-01-17T19:31:43.144Z,4.70
2023-01-17T19:36:42.823Z,4.00
2023-01-17T19:39:10.984Z,4.10
2023-01-17T19:41:44.989Z,4.40
2023-01-17T19:44:14.646Z,4.40
2023-01-17T19:46:44.010Z,6.00
2023-01-17T19:49:12.250Z,4.90
2023-01-17T19:51:40.437Z,4.70
2023-01-17T19:54:08.962Z,4.30
2023-01-17T19:56:36.950Z,3.30
2023-01-17T19:59:05.086Z,3.10
2023-01-17T20:01:34.519Z,3.30
2023-01-17T20:04:04.162Z,3.30
2023-01-17T20:06:35.676Z,3.20
2023-01-17T20:09:05.183Z,3.00
2023-01-17T20:11:36.491Z,2.90
2023-01-17T20:14:07.739Z,3.30
2023-01-17T20:16:37.226Z,2.50
2023-01-17T20:19:05.821Z,2.80
2023-01-17T20:21:34.544Z,3.00
2023-01-17T20:24:05.422Z,3.00
2023-01-17T20:29:10.249Z,3.90
2023-01-17T20:31:40.528Z,3.10
2023-01-17T20:34:11.692Z,3.00
2023-01-17T20:39:14.977Z,3.10
2023-01-17T20:41:51.527Z,2.30
2023-01-17T20:44:19.674Z,2.40
2023-01-17T20:46:49.422Z,3.20
2023-01-17T20:49:19.634Z,2.70
2023-01-17T20:51:48.524Z,3.30
2023-01-17T20:54:19.721Z,2.70
2023-01-17T20:56:47.982Z,2.60
2023-01-17T20:59:22.368Z,2.60
2023-01-17T21:01:50.812Z,2.40
2023-01-17T21:04:25.695Z,3.00
2023-01-17T21:06:54.818Z,3.30
2023-01-17T21:09:22.913Z,3.30
2023-01-17T21:11:52.191Z,2.50
2023-01-17T21:14:21.781Z,2.60
2023-01-17T21:16:50.440Z,2.40
2023-01-17T21:19:20.445Z,3.20
2023-01-17T21:21:50.026Z,3.10
2023-01-17T21:24:19.731Z,2.40
2023-01-17T21:26:49.822Z,2.40
2023-01-17T21:29:17.944Z,3.00
2023-01-17T21:31:46.412Z,2.50
2023-01-17T21:34:14.628Z,3.10
2023-01-17T21:36:43.016Z,3.30
2023-01-17T21:39:15.749Z,3.00
2023-01-17T21:41:46.334Z,2.50
2023-01-17T21:44:23.765Z,2.90
2023-01-17T21:46:54.215Z,2.90
2023-01-17T21:49:24.589Z,3.40
2023-01-17T21:51:52.742Z,2.60
2023-01-17T21:54:42.100Z,3.60
2023-01-17T21:57:29.616Z,3.00
2023-01-17T21:59:57.747Z,3.20
2023-01-17T22:02:25.757Z,2.60
2023-01-17T22:04:56.851Z,2.70
2023-01-17T22:09:56.404Z,2.30
2023-01-17T22:12:24.570Z,2.60
2023-01-17T22:14:52.760Z,2.40
2023-01-17T22:17:21.149Z,2.80
2023-01-17T22:19:49.183Z,2.40
2023-01-17T22:22:17.145Z,2.60
2023-01-17T22:24:45.117Z,2.70
2023-01-17T22:27:13.729Z,3.40
2023-01-17T22:29:41.695Z,3.60
2023-01-17T22:32:09.601Z,2.60
2023-01-17T22:34:37.419Z,3.00
2023-01-17T22:37:10.217Z,3.10
2023-01-17T22:39:39.144Z,3.90
2023-01-17T22:42:07.252Z,3.00
2023-01-17T22:44:35.163Z,2.90
2023-01-17T22:47:03.330Z,3.40
2023-01-17T22:49:31.211Z,3.30
2023-01-17T22:51:59.113Z,2.80
2023-01-17T22:54:26.856Z,3.60
2023-01-17T22:56:54.780Z,3.50
2023-01-17T22:59:24.176Z,3.20
2023-01-17T23:01:53.790Z,2.40
2023-01-17T23:04:22.362Z,2.90
2023-01-17T23:06:50.730Z,3.00
2023-01-17T23:09:18.809Z,2.80
2023-01-17T23:11:52.084Z,3.00
2023-01-17T23:14:30.755Z,2.50
2023-01-17T23:17:20.671Z,2.90
2023-01-17T23:19:54.773Z,3.00
2023-01-17T23:22:28.302Z,2.70
2023-01-17T23:24:59.314Z,2.50
2023-01-17T23:28:00.809Z,2.60
2023-01-17T23:30:34.785Z,2.40
2023-01-17T23:33:07.177Z,2.50
2023-01-17T23:35:41.742Z,3.60
2023-01-17T23:38:26.339Z,2.30
2023-01-17T23:41:21.123Z,2.40
2023-01-17T23:43:57.245Z,2.50
2023-01-17T23:46:26.935Z,2.50
2023-01-17T23:48:55.366Z,2.30
2023-01-17T23:51:23.407Z,2.50
2023-01-17T23:53:57.584Z,2.10
2023-01-17T23:56:25.570Z,2.10
2023-01-17T23:58:53.747Z,2.00
